sensor_id;sensor_type;location;lat;lon;timestamp;pressure;altitude;pressure_sealevel;temperature;humidity
72409;BME280;60402;48.082;11.628;2023-08-06T00:01:14;94711.53;;;14.77;100.00
72409;BME280;60402;48.082;11.628;2023-08-06T00:04:00;94716.63;;;14.73;100.00
72409;BME280;60402;48.082;11.628;2023-08-06T00:06:46;94719.47;;;14.73;100.00
72409;BME280;60402;48.082;11.628;2023-08-06T00:09:32;94706.72;;;14.69;100.00
72409;BME280;60402;48.082;11.628;2023-08-06T00:12:17;94717.88;;;14.72;100.00
72409;BME280;60402;48.082;11.628;2023-08-06T00:15:03;94718.44;;;14.91;100.00
72409;BME280;60402;48.082;11.628;2023-08-06T00:17:49;94719.75;;;14.75;100.00
72409;BME280;60402;48.082;11.628;2023-08-06T00:20:34;94736.63;;;14.79;100.00
72409;BME280;60402;48.082;11.628;2023-08-06T00:23:20;94728.00;;;14.73;100.00
72409;BME280;60402;48.082;11.628;2023-08-06T00:26:07;94729.66;;;14.65;100.00
72409;BME280;60402;48.082;11.628;2023-08-06T00:28:53;94722.69;;;14.51;100.00
72409;BME280;60402;48.082;11.628;2023-08-06T00:31:38;94721.41;;;14.52;100.00
72409;BME280;60402;48.082;11.628;2023-08-06T00:34:24;94724.09;;;14.47;100.00
72409;BME280;60402;48.082;11.628;2023-08-06T00:37:10;94735.78;;;14.49;100.00
72409;BME280;60402;48.082;11.628;2023-08-06T00:39:55;94722.06;;;14.47;100.00
72409;BME280;60402;48.082;11.628;2023-08-06T00:42:41;94729.09;;;14.37;100.00
72409;BME280;60402;48.082;11.628;2023-08-06T00:45:28;94707.03;;;14.32;100.00
72409;BME280;60402;48.082;11.628;2023-08-06T00:48:15;94696.66;;;14.29;100.00
72409;BME280;60402;48.082;11.628;2023-08-06T00:51:01;94706.63;;;14.24;100.00
72409;BME280;60402;48.082;11.628;2023-08-06T00:53:49;94714.56;;;14.20;100.00
72409;BME280;60402;48.082;11.628;2023-08-06T00:56:36;94702.81;;;14.13;100.00
72409;BME280;60402;48.082;11.628;2023-08-06T00:59:22;94705.75;;;14.18;100.00
72409;BME280;60402;48.082;11.628;2023-08-06T01:02:08;94711.94;;;14.17;100.00
72409;BME280;60402;48.082;11.628;2023-08-06T01:04:54;94712.22;;;14.19;100.00
72409;BME280;60402;48.082;11.628;2023-08-06T01:13:45;94702.50;;;14.11;100.00
72409;BME280;60402;48.082;11.628;2023-08-06T01:16:33;94696.09;;;14.01;100.00
72409;BME280;60402;48.082;11.628;2023-08-06T01:19:19;94693.75;;;13.99;100.00
72409;BME280;60402;48.082;11.628;2023-08-06T01:22:05;94692.47;;;14.00;100.00
72409;BME280;60402;48.082;11.628;2023-08-06T01:24:51;94684.47;;;13.99;100.00
72409;BME280;60402;48.082;11.628;2023-08-06T01:27:48;94685.84;;;14.03;100.00
72409;BME280;60402;48.082;11.628;2023-08-06T01:30:38;94679.84;;;14.01;100.00
72409;BME280;60402;48.082;11.628;2023-08-06T01:33:27;94680.75;;;14.07;100.00
72409;BME280;60402;48.082;11.628;2023-08-06T01:36:16;94685.16;;;14.09;100.00
72409;BME280;60402;48.082;11.628;2023-08-06T01:39:04;94672.22;;;14.07;100.00
72409;BME280;60402;48.082;11.628;2023-08-06T01:41:50;94679.97;;;14.07;100.00
72409;BME280;60402;48.082;11.628;2023-08-06T01:44:36;94676.22;;;14.01;100.00
72409;BME280;60402;48.082;11.628;2023-08-06T01:47:21;94674.94;;;14.02;100.00
72409;BME280;60402;48.082;11.628;2023-08-06T01:50:07;94687.69;;;14.06;100.00
72409;BME280;60402;48.082;11.628;2023-08-06T01:52:53;94683.47;;;14.02;100.00
72409;BME280;60402;48.082;11.628;2023-08-06T01:55:39;94678.09;;;14.04;100.00
72409;BME280;60402;48.082;11.628;2023-08-06T01:58:24;94671.22;;;13.96;100.00
72409;BME280;60402;48.082;11.628;2023-08-06T02:01:10;94672.78;;;13.97;100.00
72409;BME280;60402;48.082;11.628;2023-08-06T02:03:55;94666.22;;;13.91;100.00
72409;BME280;60402;48.082;11.628;2023-08-06T02:06:41;94674.47;;;14.03;100.00
72409;BME280;60402;48.082;11.628;2023-08-06T02:09:27;94663.47;;;13.96;100.00
72409;BME280;60402;48.082;11.628;2023-08-06T02:12:12;94664.06;;;14.00;100.00
72409;BME280;60402;48.082;11.628;2023-08-06T02:14:58;94662.50;;;13.85;100.00
72409;BME280;60402;48.082;11.628;2023-08-06T02:17:43;94645.44;;;13.85;100.00
72409;BME280;60402;48.082;11.628;2023-08-06T02:20:29;94649.56;;;13.84;100.00
72409;BME280;60402;48.082;11.628;2023-08-06T02:23:15;94657.69;;;13.91;100.00
72409;BME280;60402;48.082;11.628;2023-08-06T02:26:02;94654.25;;;13.87;100.00
72409;BME280;60402;48.082;11.628;2023-08-06T02:28:48;94639.75;;;13.70;100.00
72409;BME280;60402;48.082;11.628;2023-08-06T02:31:34;94644.44;;;13.73;100.00
72409;BME280;60402;48.082;11.628;2023-08-06T02:34:19;94628.19;;;13.73;100.00
72409;BME280;60402;48.082;11.628;2023-08-06T02:37:05;94633.56;;;13.71;100.00
72409;BME280;60402;48.082;11.628;2023-08-06T02:39:51;94632.28;;;13.72;100.00
72409;BME280;60402;48.082;11.628;2023-08-06T02:42:36;94637.00;;;13.75;100.00
72409;BME280;60402;48.082;11.628;2023-08-06T02:45:22;94625.41;;;13.64;100.00
72409;BME280;60402;48.082;11.628;2023-08-06T02:48:07;94621.31;;;13.65;100.00
72409;BME280;60402;48.082;11.628;2023-08-06T02:50:57;94610.44;;;13.64;100.00
72409;BME280;60402;48.082;11.628;2023-08-06T02:53:42;94586.56;;;13.70;100.00
72409;BME280;60402;48.082;11.628;2023-08-06T02:56:28;94583.72;;;13.55;100.00
72409;BME280;60402;48.082;11.628;2023-08-06T02:59:14;94574.88;;;13.53;100.00
72409;BME280;60402;48.082;11.628;2023-08-06T03:01:59;94584.72;;;13.67;100.00
72409;BME280;60402;48.082;11.628;2023-08-06T03:04:45;94581.66;;;13.56;100.00
72409;BME280;60402;48.082;11.628;2023-08-06T03:07:31;94585.28;;;13.57;100.00
72409;BME280;60402;48.082;11.628;2023-08-06T03:10:16;94593.69;;;13.51;100.00
72409;BME280;60402;48.082;11.628;2023-08-06T03:13:02;94603.59;;;13.55;100.00
72409;BME280;60402;48.082;11.628;2023-08-06T03:15:58;94600.25;;;13.57;100.00
72409;BME280;60402;48.082;11.628;2023-08-06T03:18:44;94600.50;;;13.44;100.00
72409;BME280;60402;48.082;11.628;2023-08-06T03:21:30;94607.94;;;13.42;100.00
72409;BME280;60402;48.082;11.628;2023-08-06T03:24:15;94601.28;;;13.45;100.00
72409;BME280;60402;48.082;11.628;2023-08-06T03:27:01;94607.75;;;13.45;100.00
72409;BME280;60402;48.082;11.628;2023-08-06T03:29:49;94609.88;;;13.36;100.00
72409;BME280;60402;48.082;11.628;2023-08-06T03:32:35;94598.50;;;13.36;100.00
72409;BME280;60402;48.082;11.628;2023-08-06T03:35:21;94607.09;;;13.26;100.00
72409;BME280;60402;48.082;11.628;2023-08-06T03:38:06;94609.88;;;13.36;100.00
72409;BME280;60402;48.082;11.628;2023-08-06T03:40:52;94597.84;;;13.41;100.00
72409;BME280;60402;48.082;11.628;2023-08-06T03:43:38;94586.59;;;13.32;100.00
72409;BME280;60402;48.082;11.628;2023-08-06T03:46:23;94594.50;;;13.27;100.00
72409;BME280;60402;48.082;11.628;2023-08-06T03:49:09;94596.84;;;13.29;100.00
72409;BME280;60402;48.082;11.628;2023-08-06T03:51:54;94595.28;;;13.28;100.00
72409;BME280;60402;48.082;11.628;2023-08-06T03:54:40;94584.88;;;13.25;100.00
72409;BME280;60402;48.082;11.628;2023-08-06T03:57:28;94590.59;;;13.16;100.00
72409;BME280;60402;48.082;11.628;2023-08-06T04:00:14;94586.38;;;13.11;100.00
72409;BME280;60402;48.082;11.628;2023-08-06T04:02:59;94593.16;;;13.14;100.00
72409;BME280;60402;48.082;11.628;2023-08-06T04:05:45;94585.91;;;13.13;100.00
72409;BME280;60402;48.082;11.628;2023-08-06T04:08:31;94586.69;;;13.13;100.00
72409;BME280;60402;48.082;11.628;2023-08-06T04:11:17;94582.47;;;13.09;100.00
72409;BME280;60402;48.082;11.628;2023-08-06T04:14:03;94576.13;;;13.14;100.00
72409;BME280;60402;48.082;11.628;2023-08-06T04:16:48;94581.19;;;13.10;100.00
72409;BME280;60402;48.082;11.628;2023-08-06T04:19:34;94580.81;;;13.17;100.00
72409;BME280;60402;48.082;11.628;2023-08-06T04:22:20;94590.91;;;13.18;100.00
72409;BME280;60402;48.082;11.628;2023-08-06T04:25:06;94583.34;;;13.15;100.00
72409;BME280;60402;48.082;11.628;2023-08-06T04:27:52;94578.47;;;13.15;100.00
72409;BME280;60402;48.082;11.628;2023-08-06T04:30:38;94588.69;;;13.22;100.00
72409;BME280;60402;48.082;11.628;2023-08-06T04:33:23;94588.22;;;13.23;100.00
72409;BME280;60402;48.082;11.628;2023-08-06T04:36:09;94577.47;;;13.27;100.00
72409;BME280;60402;48.082;11.628;2023-08-06T04:38:55;94599.69;;;13.29;100.00
72409;BME280;60402;48.082;11.628;2023-08-06T04:41:40;94594.28;;;13.31;100.00
72409;BME280;60402;48.082;11.628;2023-08-06T04:44:26;94601.19;;;13.39;100.00
72409;BME280;60402;48.082;11.628;2023-08-06T04:47:12;94601.28;;;13.45;100.00
72409;BME280;60402;48.082;11.628;2023-08-06T04:49:57;94605.44;;;13.59;100.00
72409;BME280;60402;48.082;11.628;2023-08-06T04:52:43;94580.75;;;13.50;100.00
72409;BME280;60402;48.082;11.628;2023-08-06T04:55:28;94578.72;;;13.50;100.00
72409;BME280;60402;48.082;11.628;2023-08-06T04:58:14;94595.69;;;13.74;100.00
72409;BME280;60402;48.082;11.628;2023-08-06T05:01:00;94599.69;;;13.82;100.00
72409;BME280;60402;48.082;11.628;2023-08-06T05:03:47;94591.88;;;13.77;100.00
72409;BME280;60402;48.082;11.628;2023-08-06T05:06:32;94586.50;;;13.79;100.00
72409;BME280;60402;48.082;11.628;2023-08-06T05:09:18;94591.69;;;13.96;100.00
72409;BME280;60402;48.082;11.628;2023-08-06T05:12:04;94592.56;;;13.87;100.00
72409;BME280;60402;48.082;11.628;2023-08-06T05:14:50;94585.91;;;13.90;100.00
72409;BME280;60402;48.082;11.628;2023-08-06T05:17:35;94592.28;;;13.85;100.00
72409;BME280;60402;48.082;11.628;2023-08-06T05:20:21;94592.38;;;13.91;100.00
72409;BME280;60402;48.082;11.628;2023-08-06T05:23:07;94588.06;;;13.80;100.00
72409;BME280;60402;48.082;11.628;2023-08-06T05:25:53;94588.75;;;13.75;100.00
72409;BME280;60402;48.082;11.628;2023-08-06T05:28:38;94591.56;;;13.75;100.00
72409;BME280;60402;48.082;11.628;2023-08-06T05:31:24;94597.25;;;13.75;100.00
72409;BME280;60402;48.082;11.628;2023-08-06T05:34:09;94600.38;;;13.77;100.00
72409;BME280;60402;48.082;11.628;2023-08-06T05:36:55;94603.31;;;13.83;100.00
72409;BME280;60402;48.082;11.628;2023-08-06T05:39:41;94604.22;;;13.89;100.00
72409;BME280;60402;48.082;11.628;2023-08-06T05:42:26;94606.47;;;13.85;100.00
72409;BME280;60402;48.082;11.628;2023-08-06T05:45:12;94610.38;;;13.88;100.00
72409;BME280;60402;48.082;11.628;2023-08-06T05:47:58;94608.34;;;13.88;100.00
72409;BME280;60402;48.082;11.628;2023-08-06T05:50:43;94607.53;;;13.88;100.00
72409;BME280;60402;48.082;11.628;2023-08-06T05:53:29;94591.50;;;13.85;100.00
72409;BME280;60402;48.082;11.628;2023-08-06T05:56:14;94595.91;;;13.86;100.00
72409;BME280;60402;48.082;11.628;2023-08-06T05:59:00;94605.19;;;13.86;100.00
72409;BME280;60402;48.082;11.628;2023-08-06T06:01:46;94597.69;;;13.98;100.00
72409;BME280;60402;48.082;11.628;2023-08-06T06:04:33;94595.22;;;14.05;100.00
72409;BME280;60402;48.082;11.628;2023-08-06T06:07:18;94603.28;;;14.07;100.00
72409;BME280;60402;48.082;11.628;2023-08-06T06:10:05;94591.69;;;14.11;100.00
72409;BME280;60402;48.082;11.628;2023-08-06T06:12:50;94594.16;;;14.18;100.00
72409;BME280;60402;48.082;11.628;2023-08-06T06:15:36;94595.72;;;14.19;100.00
72409;BME280;60402;48.082;11.628;2023-08-06T06:18:22;94594.16;;;14.32;100.00
72409;BME280;60402;48.082;11.628;2023-08-06T06:21:08;94608.84;;;14.31;100.00
72409;BME280;60402;48.082;11.628;2023-08-06T06:23:54;94599.44;;;14.40;100.00
72409;BME280;60402;48.082;11.628;2023-08-06T06:26:39;94603.69;;;14.59;100.00
72409;BME280;60402;48.082;11.628;2023-08-06T06:29:25;94604.44;;;14.74;100.00
72409;BME280;60402;48.082;11.628;2023-08-06T06:32:10;94607.63;;;14.97;100.00
72409;BME280;60402;48.082;11.628;2023-08-06T06:34:56;94602.44;;;15.16;100.00
72409;BME280;60402;48.082;11.628;2023-08-06T06:37:42;94599.81;;;15.32;100.00
72409;BME280;60402;48.082;11.628;2023-08-06T06:40:27;94606.47;;;15.65;100.00
72409;BME280;60402;48.082;11.628;2023-08-06T06:43:13;94597.41;;;15.87;100.00
72409;BME280;60402;48.082;11.628;2023-08-06T06:46:00;94595.06;;;16.11;99.47
72409;BME280;60402;48.082;11.628;2023-08-06T06:48:46;94597.31;;;16.27;98.39
72409;BME280;60402;48.082;11.628;2023-08-06T06:51:31;94599.63;;;16.55;96.27
72409;BME280;60402;48.082;11.628;2023-08-06T06:54:17;94596.50;;;16.53;96.42
72409;BME280;60402;48.082;11.628;2023-08-06T06:57:03;94593.63;;;16.47;94.23
72409;BME280;60402;48.082;11.628;2023-08-06T06:59:49;94598.03;;;16.48;95.17
72409;BME280;60402;48.082;11.628;2023-08-06T07:02:34;94592.50;;;16.39;95.04
72409;BME280;60402;48.082;11.628;2023-08-06T07:05:20;94595.00;;;16.31;93.78
72409;BME280;60402;48.082;11.628;2023-08-06T07:08:05;94598.81;;;16.23;94.91
72409;BME280;60402;48.082;11.628;2023-08-06T07:10:59;94602.44;;;16.75;91.58
72409;BME280;60402;48.082;11.628;2023-08-06T07:13:46;94602.72;;;17.69;86.74
72409;BME280;60402;48.082;11.628;2023-08-06T07:16:32;94594.69;;;18.72;80.56
72409;BME280;60402;48.082;11.628;2023-08-06T07:19:19;94603.25;;;18.60;81.54
72409;BME280;60402;48.082;11.628;2023-08-06T07:22:05;94616.22;;;18.33;80.09
72409;BME280;60402;48.082;11.628;2023-08-06T07:24:50;94609.56;;;17.82;82.60
72409;BME280;60402;48.082;11.628;2023-08-06T07:27:36;94623.09;;;17.39;84.84
72409;BME280;60402;48.082;11.628;2023-08-06T07:30:22;94626.06;;;16.81;89.07
72409;BME280;60402;48.082;11.628;2023-08-06T07:33:08;94629.69;;;16.56;91.37
72409;BME280;60402;48.082;11.628;2023-08-06T07:35:53;94621.91;;;16.25;94.99
72409;BME280;60402;48.082;11.628;2023-08-06T07:38:39;94629.38;;;15.96;95.47
72409;BME280;60402;48.082;11.628;2023-08-06T07:41:25;94611.66;;;15.87;96.97
72409;BME280;60402;48.082;11.628;2023-08-06T07:44:11;94608.72;;;15.60;98.69
72409;BME280;60402;48.082;11.628;2023-08-06T07:46:57;94606.44;;;15.85;98.67
72409;BME280;60402;48.082;11.628;2023-08-06T07:49:42;94608.94;;;15.98;99.55
72409;BME280;60402;48.082;11.628;2023-08-06T07:52:28;94603.78;;;16.02;99.11
72409;BME280;60402;48.082;11.628;2023-08-06T07:55:13;94607.94;;;15.80;100.00
72409;BME280;60402;48.082;11.628;2023-08-06T07:57:59;94603.13;;;15.87;100.00
72409;BME280;60402;48.082;11.628;2023-08-06T08:00:45;94600.75;;;15.85;100.00
72409;BME280;60402;48.082;11.628;2023-08-06T08:03:31;94597.63;;;15.83;98.54
72409;BME280;60402;48.082;11.628;2023-08-06T08:06:17;94605.31;;;16.23;96.87
72409;BME280;60402;48.082;11.628;2023-08-06T08:09:02;94591.78;;;17.56;91.22
72409;BME280;60402;48.082;11.628;2023-08-06T08:11:48;94577.78;;;19.07;83.55
72409;BME280;60402;48.082;11.628;2023-08-06T08:14:34;94588.31;;;19.69;77.49
72409;BME280;60402;48.082;11.628;2023-08-06T08:17:21;94585.66;;;20.34;76.28
72409;BME280;60402;48.082;11.628;2023-08-06T08:20:07;94570.56;;;21.00;70.37
72409;BME280;60402;48.082;11.628;2023-08-06T08:22:53;94562.03;;;21.18;70.70
72409;BME280;60402;48.082;11.628;2023-08-06T08:25:39;94570.97;;;22.83;65.00
72409;BME280;60402;48.082;11.628;2023-08-06T08:28:24;94558.22;;;23.69;61.09
72409;BME280;60402;48.082;11.628;2023-08-06T08:31:11;94562.63;;;23.43;62.59
72409;BME280;60402;48.082;11.628;2023-08-06T08:33:56;94558.41;;;23.44;61.56
72409;BME280;60402;48.082;11.628;2023-08-06T08:36:43;94558.66;;;24.00;58.24
72409;BME280;60402;48.082;11.628;2023-08-06T08:39:32;94566.16;;;24.29;57.16
72409;BME280;60402;48.082;11.628;2023-08-06T08:42:18;94557.75;;;23.65;56.14
72409;BME280;60402;48.082;11.628;2023-08-06T08:45:12;94574.47;;;22.00;59.42
72409;BME280;60402;48.082;11.628;2023-08-06T08:47:59;94565.81;;;20.36;64.86
72409;BME280;60402;48.082;11.628;2023-08-06T08:50:46;94566.59;;;19.96;66.47
72409;BME280;60402;48.082;11.628;2023-08-06T08:53:33;94587.81;;;19.53;68.83
72409;BME280;60402;48.082;11.628;2023-08-06T08:56:19;94571.97;;;19.41;69.29
72409;BME280;60402;48.082;11.628;2023-08-06T08:59:05;94578.31;;;18.83;70.92
72409;BME280;60402;48.082;11.628;2023-08-06T09:01:50;94577.75;;;18.40;71.76
72409;BME280;60402;48.082;11.628;2023-08-06T09:04:37;94585.53;;;18.23;73.67
72409;BME280;60402;48.082;11.628;2023-08-06T09:07:23;94588.56;;;17.97;73.36
72409;BME280;60402;48.082;11.628;2023-08-06T09:10:11;94595.56;;;17.84;74.41
72409;BME280;60402;48.082;11.628;2023-08-06T09:12:58;94594.34;;;17.54;75.72
72409;BME280;60402;48.082;11.628;2023-08-06T09:15:44;94587.09;;;17.58;76.93
72409;BME280;60402;48.082;11.628;2023-08-06T09:18:30;94614.75;;;16.93;81.23
72409;BME280;60402;48.082;11.628;2023-08-06T09:21:16;94612.47;;;16.71;85.62
72409;BME280;60402;48.082;11.628;2023-08-06T09:24:07;94615.44;;;16.56;84.75
72409;BME280;60402;48.082;11.628;2023-08-06T09:26:53;94603.06;;;16.65;84.95
72409;BME280;60402;48.082;11.628;2023-08-06T09:29:43;94609.34;;;16.69;84.18
72409;BME280;60402;48.082;11.628;2023-08-06T09:32:47;94605.94;;;16.65;81.41
72409;BME280;60402;48.082;11.628;2023-08-06T09:35:33;94602.53;;;16.60;82.35
72409;BME280;60402;48.082;11.628;2023-08-06T09:38:18;94592.09;;;16.83;81.48
72409;BME280;60402;48.082;11.628;2023-08-06T09:41:04;94602.03;;;16.94;80.86
72409;BME280;60402;48.082;11.628;2023-08-06T09:43:49;94602.72;;;16.83;80.90
72409;BME280;60402;48.082;11.628;2023-08-06T09:46:35;94608.44;;;17.20;78.33
72409;BME280;60402;48.082;11.628;2023-08-06T09:49:41;94608.28;;;17.41;78.19
72409;BME280;60402;48.082;11.628;2023-08-06T09:52:28;94594.78;;;17.84;77.49
72409;BME280;60402;48.082;11.628;2023-08-06T09:55:14;94602.06;;;17.85;76.58
72409;BME280;60402;48.082;11.628;2023-08-06T09:58:00;94598.75;;;18.09;75.30
72409;BME280;60402;48.082;11.628;2023-08-06T10:00:46;94593.09;;;18.37;73.98
72409;BME280;60402;48.082;11.628;2023-08-06T10:03:33;94602.47;;;18.65;73.46
72409;BME280;60402;48.082;11.628;2023-08-06T10:06:20;94616.09;;;17.88;71.89
72409;BME280;60402;48.082;11.628;2023-08-06T10:09:05;94607.13;;;17.64;72.19
72409;BME280;60402;48.082;11.628;2023-08-06T10:11:51;94601.03;;;17.40;72.47
72409;BME280;60402;48.082;11.628;2023-08-06T10:14:41;94610.25;;;17.66;70.53
72409;BME280;60402;48.082;11.628;2023-08-06T10:17:28;94600.16;;;17.22;71.26
72409;BME280;60402;48.082;11.628;2023-08-06T10:20:14;94602.69;;;17.09;73.98
72409;BME280;60402;48.082;11.628;2023-08-06T10:23:04;94618.00;;;17.11;75.54
72409;BME280;60402;48.082;11.628;2023-08-06T10:25:53;94609.22;;;17.21;75.11
72409;BME280;60402;48.082;11.628;2023-08-06T10:28:41;94610.53;;;17.25;75.02
72409;BME280;60402;48.082;11.628;2023-08-06T10:31:55;94595.81;;;17.92;73.31
72409;BME280;60402;48.082;11.628;2023-08-06T10:37:44;94607.06;;;18.12;71.53
72409;BME280;60402;48.082;11.628;2023-08-06T10:40:31;94605.56;;;17.69;71.38
72409;BME280;60402;48.082;11.628;2023-08-06T10:43:27;94613.44;;;17.31;73.25
72409;BME280;60402;48.082;11.628;2023-08-06T10:46:26;94604.97;;;17.05;74.14
72409;BME280;60402;48.082;11.628;2023-08-06T10:49:13;94619.69;;;16.98;75.14
72409;BME280;60402;48.082;11.628;2023-08-06T10:52:02;94612.75;;;17.04;75.31
72409;BME280;60402;48.082;11.628;2023-08-06T10:54:48;94624.66;;;17.03;75.60
72409;BME280;60402;48.082;11.628;2023-08-06T10:57:34;94626.94;;;17.30;75.65
72409;BME280;60402;48.082;11.628;2023-08-06T11:00:23;94606.25;;;17.95;74.72
72409;BME280;60402;48.082;11.628;2023-08-06T11:03:09;94615.13;;;18.14;73.17
72409;BME280;60402;48.082;11.628;2023-08-06T11:05:55;94611.53;;;18.30;71.39
72409;BME280;60402;48.082;11.628;2023-08-06T11:08:47;94609.69;;;18.16;71.72
72409;BME280;60402;48.082;11.628;2023-08-06T11:11:33;94614.34;;;18.13;71.40
72409;BME280;60402;48.082;11.628;2023-08-06T11:14:18;94618.50;;;18.12;72.01
72409;BME280;60402;48.082;11.628;2023-08-06T11:17:08;94610.94;;;17.98;71.02
72409;BME280;60402;48.082;11.628;2023-08-06T11:19:53;94627.25;;;17.92;73.04
72409;BME280;60402;48.082;11.628;2023-08-06T11:22:39;94614.72;;;17.78;72.62
72409;BME280;60402;48.082;11.628;2023-08-06T11:25:25;94637.09;;;17.74;74.08
72409;BME280;60402;48.082;11.628;2023-08-06T11:28:11;94636.53;;;17.27;73.85
72409;BME280;60402;48.082;11.628;2023-08-06T11:30:59;94635.38;;;17.08;74.49
72409;BME280;60402;48.082;11.628;2023-08-06T11:33:49;94648.97;;;16.93;73.39
72409;BME280;60402;48.082;11.628;2023-08-06T11:36:40;94646.66;;;16.91;75.01
72409;BME280;60402;48.082;11.628;2023-08-06T11:39:26;94645.22;;;16.75;77.21
72409;BME280;60402;48.082;11.628;2023-08-06T11:42:12;94650.97;;;16.81;79.53
72409;BME280;60402;48.082;11.628;2023-08-06T11:44:58;94649.50;;;16.91;81.67
72409;BME280;60402;48.082;11.628;2023-08-06T11:47:49;94653.06;;;16.80;81.08
72409;BME280;60402;48.082;11.628;2023-08-06T11:50:38;94658.81;;;16.86;78.97
72409;BME280;60402;48.082;11.628;2023-08-06T11:53:27;94668.97;;;16.93;78.35
72409;BME280;60402;48.082;11.628;2023-08-06T11:56:14;94656.34;;;17.05;78.54
72409;BME280;60402;48.082;11.628;2023-08-06T11:59:00;94669.28;;;17.00;77.37
72409;BME280;60402;48.082;11.628;2023-08-06T12:01:45;94656.25;;;16.94;78.69
72409;BME280;60402;48.082;11.628;2023-08-06T12:04:32;94655.47;;;16.93;76.85
72409;BME280;60402;48.082;11.628;2023-08-06T12:07:18;94673.66;;;16.96;77.32
72409;BME280;60402;48.082;11.628;2023-08-06T12:10:04;94685.31;;;16.92;77.72
72409;BME280;60402;48.082;11.628;2023-08-06T12:12:50;94668.34;;;16.83;77.62
72409;BME280;60402;48.082;11.628;2023-08-06T12:15:36;94670.63;;;17.05;78.76
72409;BME280;60402;48.082;11.628;2023-08-06T12:18:21;94671.41;;;17.05;77.92
72409;BME280;60402;48.082;11.628;2023-08-06T12:21:07;94661.31;;;17.10;78.75
72409;BME280;60402;48.082;11.628;2023-08-06T12:23:53;94663.81;;;16.97;78.50
72409;BME280;60402;48.082;11.628;2023-08-06T12:26:39;94683.19;;;16.87;78.98
72409;BME280;60402;48.082;11.628;2023-08-06T12:29:25;94678.25;;;16.88;79.60
72409;BME280;60402;48.082;11.628;2023-08-06T12:32:12;94667.81;;;16.79;79.11
72409;BME280;60402;48.082;11.628;2023-08-06T12:34:57;94661.38;;;16.58;81.35
72409;BME280;60402;48.082;11.628;2023-08-06T12:37:43;94656.88;;;16.51;82.11
72409;BME280;60402;48.082;11.628;2023-08-06T12:40:31;94668.59;;;16.53;81.00
72409;BME280;60402;48.082;11.628;2023-08-06T12:43:16;94667.59;;;16.56;81.03
72409;BME280;60402;48.082;11.628;2023-08-06T12:46:02;94678.91;;;16.51;82.21
72409;BME280;60402;48.082;11.628;2023-08-06T12:48:48;94664.00;;;16.61;81.86
72409;BME280;60402;48.082;11.628;2023-08-06T12:51:34;94676.06;;;16.25;86.54
72409;BME280;60402;48.082;11.628;2023-08-06T12:54:20;94685.34;;;16.20;89.03
72409;BME280;60402;48.082;11.628;2023-08-06T12:57:06;94705.78;;;16.18;88.71
72409;BME280;60402;48.082;11.628;2023-08-06T12:59:52;94705.53;;;15.60;94.65
72409;BME280;60402;48.082;11.628;2023-08-06T13:02:37;94703.88;;;15.89;94.61
72409;BME280;60402;48.082;11.628;2023-08-06T13:05:23;94714.16;;;15.81;97.71
72409;BME280;60402;48.082;11.628;2023-08-06T13:08:09;94708.69;;;15.63;99.35
72409;BME280;60402;48.082;11.628;2023-08-06T13:10:54;94712.63;;;15.65;100.00
72409;BME280;60402;48.082;11.628;2023-08-06T13:13:40;94696.69;;;15.73;100.00
72409;BME280;60402;48.082;11.628;2023-08-06T13:16:26;94708.00;;;15.88;99.47
72409;BME280;60402;48.082;11.628;2023-08-06T13:19:12;94708.28;;;15.70;99.75
72409;BME280;60402;48.082;11.628;2023-08-06T13:24:47;94709.56;;;15.69;97.78
72409;BME280;60402;48.082;11.628;2023-08-06T13:27:33;94719.03;;;15.80;98.50
72409;BME280;60402;48.082;11.628;2023-08-06T13:30:19;94710.00;;;15.82;98.30
72409;BME280;60402;48.082;11.628;2023-08-06T13:33:04;94717.53;;;15.65;100.00
72409;BME280;60402;48.082;11.628;2023-08-06T13:35:51;94719.91;;;15.51;100.00
72409;BME280;60402;48.082;11.628;2023-08-06T13:38:37;94706.84;;;15.24;100.00
72409;BME280;60402;48.082;11.628;2023-08-06T13:41:23;94724.34;;;15.38;100.00
72409;BME280;60402;48.082;11.628;2023-08-06T13:44:08;94723.56;;;15.37;100.00
72409;BME280;60402;48.082;11.628;2023-08-06T13:46:55;94720.38;;;15.65;100.00
72409;BME280;60402;48.082;11.628;2023-08-06T13:49:40;94726.09;;;15.85;99.10
72409;BME280;60402;48.082;11.628;2023-08-06T13:52:26;94724.66;;;15.75;99.51
72409;BME280;60402;48.082;11.628;2023-08-06T13:55:12;94716.06;;;15.69;100.00
72409;BME280;60402;48.082;11.628;2023-08-06T13:57:58;94715.78;;;15.88;99.25
72409;BME280;60402;48.082;11.628;2023-08-06T14:00:43;94729.38;;;15.78;99.45
72409;BME280;60402;48.082;11.628;2023-08-06T14:03:29;94733.28;;;15.80;100.00
72409;BME280;60402;48.082;11.628;2023-08-06T14:06:15;94742.88;;;15.63;100.00
72409;BME280;60402;48.082;11.628;2023-08-06T14:09:00;94735.50;;;15.56;99.70
72409;BME280;60402;48.082;11.628;2023-08-06T14:11:46;94754.31;;;15.33;100.00
72409;BME280;60402;48.082;11.628;2023-08-06T14:14:32;94744.72;;;15.30;100.00
72409;BME280;60402;48.082;11.628;2023-08-06T14:17:17;94754.06;;;15.16;100.00
72409;BME280;60402;48.082;11.628;2023-08-06T14:20:04;94746.38;;;15.22;100.00
72409;BME280;60402;48.082;11.628;2023-08-06T14:22:49;94750.31;;;15.10;100.00
72409;BME280;60402;48.082;11.628;2023-08-06T14:25:35;94758.84;;;15.10;100.00
72409;BME280;60402;48.082;11.628;2023-08-06T14:28:21;94778.09;;;15.00;100.00
72409;BME280;60402;48.082;11.628;2023-08-06T14:31:07;94764.09;;;14.82;100.00
72409;BME280;60402;48.082;11.628;2023-08-06T14:33:52;94758.38;;;14.67;100.00
72409;BME280;60402;48.082;11.628;2023-08-06T14:36:38;94778.28;;;14.67;100.00